Hovedside
METAR-TAF:

METAR-TAF

Lufthavner :

Umeå, Sverige

Umeå lufthavn

breddegrad: 63-48N, lengdegrad: 020-17E, høyde over havet: 7 m

Gjeldene værobservasjon

Denne rapporten ble laget for 18 minutter siden, klokken 07:20 UTC
Vind 5 kt fra Øst-sørøst
Temperatur 1°C
Luftfuktighet 93%
Trykk 1031 hPa
Sikt 10 km eller mer
Brutte skyer i en høyde av 3000 ft

METAR: ESNU 240720Z 12005KT 9999 BKN030 01/M00 Q1031

Tid: 09:38 (07:38 UTC)

Varsel

Denne rapporten ble laget for 2 timer og 8 minutter siden, klokken 05:30 UTC
Varsel gyldig fra 24. klokken 06 UTC til 24. klokken 15 UTC
Vind 5 kt fra Sør-sørøst
Sikt 10 km eller mer
Brutte skyer i en høyde av 3000 ft

TAF: ESNU 240530Z 2406/2415 15005KT 9999 BKN030

Værobservasjoner og værvarsel for over 4000 flyplasser (METAR- og TAF-rapporter).

Tilgjengelige stasjoner er representert av de røde og gule prikkene på kartet.

Hold musepekeren over prikken for å se navnet på stasjonen.

Klikk så for å se værobservasjoner og -varsler.

For å forandre kartet kan du klikke på den grønne knappen med svart kryss for å zoome inn, på den grønne knappen med strek for å zoome ut, eller på de grønne pilene for å se tilstøtende kart.


METAR-TAF: